Time;durP1;ratioP1;P1;durP2;ratioP2;P2;SDS_P1;SDS_P2;PMS_P1;PMS_P2;Temp;Humidity;BMP_temperature;BMP_pressure;BME280_temperature;BME280_humidity;BME280_pressure;Samples;Min_cycle;Max_cycle;Signal;HPM_P1;HPM_P2
2022/11/27 09:21:25;;;;;;;;;;;;;;;9.62;60.16;97779.69;4243286;27;10491;-68
2022/11/27 09:23:29;;;;;;;;;;;;;;;9.92;59.84;97775.59;4246524;27;5590;-68
2022/11/27 09:25:32;;;;;;;;;;;;;;;10.18;59.69;97775.41;4237510;27;5676;-68
2022/11/27 09:27:34;;;;;;;;;;;;;;;10.37;59.03;97779.56;4241991;27;5238;-68
2022/11/27 09:29:37;;;;;;;;;;;;;;;10.52;58.70;97772.59;4244424;27;6312;-68
2022/11/27 09:31:40;;;;;;;;;;;;;;;10.66;58.80;97771.09;4250250;27;5672;-68
2022/11/27 09:33:44;;;;;;;;;;;;;;;10.75;58.29;97770.88;4235586;27;5680;-68
2022/11/27 09:35:46;;;;;;;;;;;;;;;10.82;58.17;97763.09;4235550;27;5693;-68
2022/11/27 09:37:50;;;;;;;;;;;;;;;10.89;58.05;97758.78;4240784;27;5617;-68
2022/11/27 09:39:54;;;;;;;;;;;;;;;10.95;57.96;97760.72;4239892;27;5657;-68
2022/11/27 09:42:01;;;;;;;;;;;;;;;11.01;57.53;97756.56;4239926;27;5721;-68
2022/11/27 09:44:13;;;;;;;;;;;;;;;11.04;57.38;97764.16;4242868;27;5862;-68
2022/11/27 09:46:24;;;;;;;;;;;;;;;11.05;57.26;97761.34;4243761;27;5135;-68
2022/11/27 09:48:34;;;;;;;;;;;;;;;11.09;57.11;97761.81;4236171;27;7687;-67
2022/11/27 09:50:49;;;;;;;;;;;;;;;11.13;57.24;97767.59;4239789;27;6594;-68
2022/11/27 09:52:56;;;;;;;;;;;;;;;11.18;56.71;97765.25;4239227;27;5662;-68
2022/11/27 09:55:02;;;;;;;;;;;;;;;11.20;56.70;97757.94;4239049;27;5732;-68
2022/11/27 09:57:06;;;;;;;;;;;;;;;11.23;56.68;97752.34;4231248;27;5612;-68
2022/11/27 09:59:15;;;;;;;;;;;;;;;11.27;56.46;97758.91;4239898;27;5898;-68
2022/11/27 10:01:23;;;;;;;;;;;;;;;11.31;56.56;97753.09;4244926;27;5681;-68
2022/11/27 10:03:34;;;;;;;;;;;;;;;11.34;56.23;97750.13;4247973;27;5840;-68
2022/11/27 10:05:46;;;;;;;;;;;;;;;11.33;56.23;97756.41;4244303;27;7388;-67
2022/11/27 10:08:06;;;;;;;;;;;;;;;11.35;55.92;97751.75;4242845;27;5608;-68
2022/11/27 10:10:25;;;;;;;;;;;;;;;11.38;55.72;97753.22;4243634;27;5827;-68
2022/11/27 10:12:41;;;;;;;;;;;;;;;11.37;55.47;97743.63;4240581;27;6302;-68
2022/11/27 10:14:58;;;;;;;;;;;;;;;11.39;55.27;97739.00;4235755;27;5605;-68
2022/11/27 10:17:05;;;;;;;;;;;;;;;11.44;55.37;97734.00;4244143;27;5602;-68
2022/11/27 10:19:21;;;;;;;;;;;;;;;11.47;55.28;97731.00;4242320;27;5841;-68
2022/11/27 10:21:34;;;;;;;;;;;;;;;11.49;55.05;97736.94;4224220;28;5592;-68
2022/11/27 10:23:46;;;;;;;;;;;;;;;11.49;55.04;97734.28;4230417;27;5918;-68
2022/11/27 10:25:50;;;;;;;;;;;;;;;11.50;54.83;97727.16;4228727;27;5689;-68
2022/11/27 10:28:05;;;;;;;;;;;;;;;11.47;54.79;97722.22;4230049;28;5615;-68
2022/11/27 10:30:15;;;;;;;;;;;;;;;11.46;54.56;97716.13;4235464;27;5731;-68
2022/11/27 10:32:21;;;;;;;;;;;;;;;11.50;54.46;97704.16;4229464;27;5822;-72
2022/11/27 10:34:48;;;;;;;;;;;;;;;11.52;54.02;97703.97;4231960;27;6398;-66
2022/11/27 10:36:56;;;;;;;;;;;;;;;11.52;54.27;97694.22;4225537;28;5604;-65
2022/11/27 10:39:01;;;;;;;;;;;;;;;11.51;54.19;97687.28;4231580;27;5578;-68
2022/11/27 10:41:08;;;;;;;;;;;;;;;11.53;54.21;97692.38;4235008;27;5722;-64
2022/11/27 10:43:21;;;;;;;;;;;;;;;11.57;54.04;97696.34;4219601;28;5699;-66
2022/11/27 10:45:29;;;;;;;;;;;;;;;11.61;54.13;97695.81;4234300;27;5609;-65
2022/11/27 10:47:33;;;;;;;;;;;;;;;11.62;54.01;97697.44;4227780;28;5760;-65
2022/11/27 10:49:39;;;;;;;;;;;;;;;11.66;53.70;97684.66;4234704;27;5693;-68
2022/11/27 10:51:42;;;;;;;;;;;;;;;11.67;53.80;97689.00;4232678;28;6314;-71
2022/11/27 10:53:47;;;;;;;;;;;;;;;11.68;53.41;97681.88;4235572;27;5613;-67
2022/11/27 10:56:15;;;;;;;;;;;;;;;11.71;53.49;97686.78;4228984;28;5800;-67
2022/11/27 10:58:26;;;;;;;;;;;;;;;11.73;53.24;97693.56;4179327;28;6341;-69
2022/11/27 11:00:29;;;;;;;;;;;;;;;11.75;53.28;97682.78;4226014;28;5784;-64
2022/11/27 11:02:33;;;;;;;;;;;;;;;11.77;53.00;97692.19;4227200;27;5586;-65
2022/11/27 11:04:36;;;;;;;;;;;;;;;11.79;52.89;97689.38;4224754;27;5704;-66
2022/11/27 11:06:42;;;;;;;;;;;;;;;11.83;52.79;97685.41;4226211;27;5676;-67
2022/11/27 11:08:45;;;;;;;;;;;;;;;11.84;52.98;97671.16;4224690;27;5729;-69
2022/11/27 11:10:52;;;;;;;;;;;;;;;11.82;52.65;97658.09;4230392;28;5736;-70
2022/11/27 11:13:14;;;;;;;;;;;;;;;11.80;52.61;97649.50;4231856;27;5590;-66
2022/11/27 11:15:17;;;;;;;;;;;;;;;11.82;52.44;97646.66;4226298;28;5645;-68
2022/11/27 11:17:25;;;;;;;;;;;;;;;11.83;52.61;97643.81;4230089;28;5621;-68
2022/11/27 11:19:31;;;;;;;;;;;;;;;11.86;52.37;97637.34;4227872;27;5667;-69
2022/11/27 11:21:39;;;;;;;;;;;;;;;11.86;52.32;97632.03;4225816;27;5605;-70
2022/11/27 11:23:42;;;;;;;;;;;;;;;11.86;52.29;97629.38;4224405;28;5707;-70
2022/11/27 11:25:50;;;;;;;;;;;;;;;11.88;52.53;97632.69;4226066;27;5430;-67
2022/11/27 11:27:53;;;;;;;;;;;;;;;11.92;52.46;97631.34;4223279;27;8552;-67
2022/11/27 11:30:00;;;;;;;;;;;;;;;11.94;52.04;97631.97;4231892;27;5606;-67
2022/11/27 11:32:08;;;;;;;;;;;;;;;11.92;52.17;97620.72;4232565;28;5614;-67
2022/11/27 11:34:20;;;;;;;;;;;;;;;11.91;51.83;97613.78;4225499;27;5608;-66
2022/11/27 11:36:22;;;;;;;;;;;;;;;11.91;51.90;97611.97;4224223;27;5784;-65
2022/11/27 11:38:30;;;;;;;;;;;;;;;11.94;51.78;97611.59;4229917;27;5626;-65
2022/11/27 11:40:36;;;;;;;;;;;;;;;11.93;51.66;97606.47;4227250;28;5605;-65
2022/11/27 11:42:50;;;;;;;;;;;;;;;11.95;51.96;97604.47;4229988;27;5617;-65
2022/11/27 11:45:00;;;;;;;;;;;;;;;11.95;51.56;97601.81;4227781;27;5911;-65
2022/11/27 11:47:05;;;;;;;;;;;;;;;11.97;51.71;97599.81;4219743;28;5617;-65
2022/11/27 11:49:17;;;;;;;;;;;;;;;11.99;51.63;97597.78;4224818;28;5693;-65
2022/11/27 11:51:29;;;;;;;;;;;;;;;11.99;51.70;97600.44;4231428;27;5618;-65
2022/11/27 11:53:35;;;;;;;;;;;;;;;11.97;51.57;97591.84;4227441;27;5605;-69
2022/11/27 11:55:43;;;;;;;;;;;;;;;12.01;51.44;97592.34;4222920;28;5684;-69
2022/11/27 11:58:02;;;;;;;;;;;;;;;12.00;51.62;97591.47;4230503;27;5633;-69
2022/11/27 12:00:11;;;;;;;;;;;;;;;12.01;51.32;97581.72;4222897;27;5768;-69
2022/11/27 12:02:37;;;;;;;;;;;;;;;12.01;51.25;97565.84;4222223;27;5084;-69
2022/11/27 12:05:05;;;;;;;;;;;;;;;12.01;51.19;97563.19;4225220;27;5685;-69
2022/11/27 12:07:14;;;;;;;;;;;;;;;12.01;50.98;97563.19;4221667;27;5681;-66
2022/11/27 12:09:34;;;;;;;;;;;;;;;12.02;50.97;97560.34;4229035;27;5601;-66
2022/11/27 12:11:44;;;;;;;;;;;;;;;12.03;51.05;97553.22;4217331;27;5819;-66
2022/11/27 12:14:02;;;;;;;;;;;;;;;12.04;51.04;97553.03;4221366;28;5677;-66
2022/11/27 12:16:11;;;;;;;;;;;;;;;12.06;51.20;97547.53;4227651;28;5974;-67
2022/11/27 12:18:24;;;;;;;;;;;;;;;12.02;50.94;97546.28;4229210;27;5693;-66
2022/11/27 12:20:33;;;;;;;;;;;;;;;12.04;50.94;97539.78;4233146;28;5856;-67
2022/11/27 12:23:00;;;;;;;;;;;;;;;12.07;51.08;97546.53;4226212;28;5692;-66
2022/11/27 12:25:16;;;;;;;;;;;;;;;12.07;50.71;97539.41;4179072;27;5616;-66
2022/11/27 12:27:28;;;;;;;;;;;;;;;12.04;51.02;97539.78;4223690;27;5776;-66
2022/11/27 12:29:42;;;;;;;;;;;;;;;12.04;50.59;97534.47;4224730;27;5815;-66
2022/11/27 12:32:07;;;;;;;;;;;;;;;12.05;50.70;97541.41;4220054;27;5753;-63
2022/11/27 12:34:21;;;;;;;;;;;;;;;12.07;50.77;97533.28;4227221;27;5779;-63
2022/11/27 12:36:40;;;;;;;;;;;;;;;12.08;50.70;97529.63;4227409;28;5850;-62
2022/11/27 12:39:03;;;;;;;;;;;;;;;12.09;50.25;97532.09;4220248;27;5792;-63
2022/11/27 12:41:27;;;;;;;;;;;;;;;12.09;50.54;97525.97;4229202;27;5808;-63
2022/11/27 12:43:35;;;;;;;;;;;;;;;12.10;50.33;97522.31;4231298;27;5744;-63
2022/11/27 12:45:44;;;;;;;;;;;;;;;12.09;50.18;97520.66;4224098;27;5658;-63
2022/11/27 12:47:52;;;;;;;;;;;;;;;12.05;49.79;97508.78;4224592;28;5951;-63
2022/11/27 12:50:04;;;;;;;;;;;;;;;12.02;50.12;97503.88;4225421;27;5700;-62
2022/11/27 12:52:14;;;;;;;;;;;;;;;12.02;50.04;97499.38;4224518;28;5726;-63
2022/11/27 12:54:22;;;;;;;;;;;;;;;12.02;50.14;97494.09;4230153;28;5590;-63
2022/11/27 12:56:30;;;;;;;;;;;;;;;12.01;50.19;97492.44;4222931;27;5810;-63
2022/11/27 12:58:37;;;;;;;;;;;;;;;12.04;50.01;97488.59;4217118;27;5803;-63
2022/11/27 13:00:42;;;;;;;;;;;;;;;12.03;49.64;97479.84;4228227;27;5610;-70
2022/11/27 13:02:56;;;;;;;;;;;;;;;12.04;49.58;97472.69;4221224;27;5664;-62
2022/11/27 13:05:03;;;;;;;;;;;;;;;12.05;49.58;97474.34;4225034;27;5665;-63
2022/11/27 13:07:11;;;;;;;;;;;;;;;12.02;49.77;97470.25;4210883;27;5613;-62
2022/11/27 13:09:20;;;;;;;;;;;;;;;12.02;49.51;97466.78;4225758;27;5745;-62
2022/11/27 13:11:28;;;;;;;;;;;;;;;12.02;49.68;97464.13;4229459;27;5689;-62
2022/11/27 13:13:34;;;;;;;;;;;;;;;12.02;49.56;97459.66;4223593;28;5697;-62
2022/11/27 13:15:43;;;;;;;;;;;;;;;12.03;49.17;97447.22;4236238;27;5726;-62
2022/11/27 13:17:52;;;;;;;;;;;;;;;12.01;49.31;97455.34;4222089;27;5541;-61
2022/11/27 13:19:56;;;;;;;;;;;;;;;11.98;48.89;97444.28;4227593;27;5690;-62
2022/11/27 13:22:03;;;;;;;;;;;;;;;11.96;49.07;97441.81;4225936;27;5708;-62
2022/11/27 13:24:06;;;;;;;;;;;;;;;11.97;49.08;97446.09;4226650;27;5617;-62
2022/11/27 13:26:15;;;;;;;;;;;;;;;11.98;49.21;97446.94;4225623;27;5618;-62
2022/11/27 13:28:30;;;;;;;;;;;;;;;11.99;48.67;97440.63;4224767;27;5689;-62
2022/11/27 13:30:36;;;;;;;;;;;;;;;11.99;48.77;97441.44;4222732;27;5766;-63
2022/11/27 13:32:47;;;;;;;;;;;;;;;11.99;48.86;97438.78;4225692;27;6397;-62
2022/11/27 13:34:51;;;;;;;;;;;;;;;11.99;48.77;97425.53;4219838;28;5693;-62
2022/11/27 13:36:58;;;;;;;;;;;;;;;12.01;48.48;97423.56;4221509;27;5608;-63
2022/11/27 13:39:03;;;;;;;;;;;;;;;12.03;48.36;97415.41;4224078;27;5885;-62
2022/11/27 13:41:06;;;;;;;;;;;;;;;12.00;48.30;97403.34;4221021;27;5602;-63
2022/11/27 13:43:21;;;;;;;;;;;;;;;12.00;48.44;97399.88;4221857;27;5831;-63
2022/11/27 13:45:28;;;;;;;;;;;;;;;11.98;48.48;97389.47;4229409;27;5602;-63
2022/11/27 13:47:38;;;;;;;;;;;;;;;11.98;48.39;97375.38;4222125;27;5601;-63
2022/11/27 13:49:42;;;;;;;;;;;;;;;11.98;48.18;97373.56;4220326;27;5842;-63
2022/11/27 13:51:44;;;;;;;;;;;;;;;11.97;48.53;97369.28;4228557;27;5692;-63
2022/11/27 13:53:47;;;;;;;;;;;;;;;11.98;48.36;97368.25;4219040;27;6318;-62
2022/11/27 13:55:55;;;;;;;;;;;;;;;12.00;48.17;97373.38;4222854;27;5761;-61
2022/11/27 13:57:59;;;;;;;;;;;;;;;12.00;47.98;97371.53;4221502;28;5617;-61
2022/11/27 14:00:06;;;;;;;;;;;;;;;11.99;48.29;97377.84;4206528;28;5727;-62
2022/11/27 14:02:09;;;;;;;;;;;;;;;11.99;48.18;97377.84;4224762;27;5688;-62
2022/11/27 14:04:12;;;;;;;;;;;;;;;12.01;48.06;97375.84;4227723;28;5604;-64
2022/11/27 14:06:18;;;;;;;;;;;;;;;11.99;48.29;97377.84;4225215;27;6325;-62
2022/11/27 14:08:25;;;;;;;;;;;;;;;12.02;48.08;97379.31;4223981;27;5692;-62
2022/11/27 14:10:30;;;;;;;;;;;;;;;12.04;48.17;97379.94;4221961;27;5695;-62
2022/11/27 14:12:37;;;;;;;;;;;;;;;12.04;47.92;97375.47;4226483;27;5789;-62
2022/11/27 14:14:42;;;;;;;;;;;;;;;12.04;47.86;97375.47;4224780;28;5665;-63
2022/11/27 14:16:56;;;;;;;;;;;;;;;12.04;47.97;97372.81;4224896;27;6325;-63
2022/11/27 14:19:01;;;;;;;;;;;;;;;12.06;47.85;97375.28;4222927;27;5613;-62
2022/11/27 14:21:04;;;;;;;;;;;;;;;12.05;48.18;97373.63;4226196;27;5594;-62
2022/11/27 14:23:09;;;;;;;;;;;;;;;12.06;48.29;97378.75;4226347;27;5767;-62
2022/11/27 14:25:19;;;;;;;;;;;;;;;12.07;47.90;97377.75;4223366;27;5617;-62
2022/11/27 14:27:24;;;;;;;;;;;;;;;12.08;47.82;97387.31;4220577;27;5719;-61
2022/11/27 14:29:30;;;;;;;;;;;;;;;12.08;48.07;97378.56;4231927;27;5700;-62
2022/11/27 14:31:35;;;;;;;;;;;;;;;12.08;47.78;97374.06;4229238;27;5804;-62
2022/11/27 14:33:43;;;;;;;;;;;;;;;12.08;47.73;97376.72;4233961;27;5697;-62
2022/11/27 14:36:07;;;;;;;;;;;;;;;12.07;48.04;97361.84;4229630;27;5818;-62
2022/11/27 14:38:15;;;;;;;;;;;;;;;12.09;48.03;97357.16;4222016;27;5625;-62
2022/11/27 14:40:22;;;;;;;;;;;;;;;12.08;48.01;97360.81;4226139;27;5613;-62
2022/11/27 14:42:26;;;;;;;;;;;;;;;12.07;48.17;97351.22;4234480;27;5605;-62
2022/11/27 14:44:34;;;;;;;;;;;;;;;12.06;48.00;97344.28;4213158;28;5617;-62
2022/11/27 14:46:37;;;;;;;;;;;;;;;12.05;48.25;97355.09;4227098;27;5830;-62
2022/11/27 14:48:44;;;;;;;;;;;;;;;12.06;47.81;97354.91;4222175;27;5621;-62
2022/11/27 14:50:48;;;;;;;;;;;;;;;12.07;48.05;97348.59;4206535;28;5734;-62
2022/11/27 14:52:54;;;;;;;;;;;;;;;12.07;48.22;97353.88;4222027;28;5713;-62
2022/11/27 14:54:58;;;;;;;;;;;;;;;12.07;48.17;97345.94;4233499;27;5854;-61
2022/11/27 14:57:02;;;;;;;;;;;;;;;12.07;47.74;97348.59;4227433;27;5689;-61
2022/11/27 14:59:05;;;;;;;;;;;;;;;12.08;47.81;97349.41;4221412;27;5714;-61
2022/11/27 15:01:23;;;;;;;;;;;;;;;12.09;47.71;97346.56;4229566;27;5728;-61
2022/11/27 15:03:26;;;;;;;;;;;;;;;12.07;48.12;97342.47;4223419;27;5612;-61
2022/11/27 15:05:29;;;;;;;;;;;;;;;12.06;47.91;97344.28;4228625;27;5745;-61
2022/11/27 15:07:36;;;;;;;;;;;;;;;12.06;48.06;97346.13;4224918;27;5613;-62
2022/11/27 15:09:51;;;;;;;;;;;;;;;12.06;48.17;97341.66;4233066;28;5692;-62
2022/11/27 15:11:57;;;;;;;;;;;;;;;12.06;48.20;97335.53;4208212;28;5624;-62
2022/11/27 15:14:03;;;;;;;;;;;;;;;12.06;47.89;97343.47;4228384;28;5677;-62
2022/11/27 15:16:14;;;;;;;;;;;;;;;12.05;48.06;97337.34;4227667;28;5697;-62
2022/11/27 15:18:22;;;;;;;;;;;;;;;12.06;47.93;97324.94;4222890;27;5689;-62
2022/11/27 15:20:31;;;;;;;;;;;;;;;12.05;47.78;97329.41;4218553;28;6485;-61
2022/11/27 15:22:35;;;;;;;;;;;;;;;12.04;48.09;97327.78;4223241;28;5873;-61
2022/11/27 15:24:38;;;;;;;;;;;;;;;12.01;47.93;97328.16;4232970;27;5582;-61
2022/11/27 15:26:43;;;;;;;;;;;;;;;12.02;48.01;97321.03;4223411;27;6366;-62
2022/11/27 15:28:52;;;;;;;;;;;;;;;12.04;48.09;97313.69;4225399;27;6386;-62
2022/11/27 15:30:55;;;;;;;;;;;;;;;12.05;48.30;97316.16;4226575;27;5760;-62
2022/11/27 15:33:00;;;;;;;;;;;;;;;12.05;47.93;97312.69;4222445;27;5732;-62
2022/11/27 15:35:13;;;;;;;;;;;;;;;12.03;48.30;97315.53;4208899;28;5804;-62
2022/11/27 15:37:22;;;;;;;;;;;;;;;12.04;48.02;97317.16;4226378;27;5763;-62
2022/11/27 15:39:33;;;;;;;;;;;;;;;12.03;48.26;97315.53;4225186;27;5724;-63
2022/11/27 15:41:36;;;;;;;;;;;;;;;12.02;48.14;97324.50;4223721;27;5701;-66
2022/11/27 15:43:45;;;;;;;;;;;;;;;12.02;48.04;97318.38;4222656;28;5632;-66
2022/11/27 15:45:47;;;;;;;;;;;;;;;12.02;48.26;97319.19;4225710;27;5867;-66
2022/11/27 15:48:00;;;;;;;;;;;;;;;12.01;48.06;97314.91;4224635;27;5831;-64
2022/11/27 15:50:04;;;;;;;;;;;;;;;12.02;47.96;97313.06;4221055;27;5699;-67
2022/11/27 15:52:07;;;;;;;;;;;;;;;12.01;48.15;97317.56;4224520;27;5857;-65
2022/11/27 15:54:09;;;;;;;;;;;;;;;11.99;48.25;97311.59;4225250;27;5610;-68
2022/11/27 15:56:12;;;;;;;;;;;;;;;11.98;48.38;97306.50;4222113;27;5939;-73
2022/11/27 15:58:15;;;;;;;;;;;;;;;11.98;47.95;97315.25;4225788;27;5689;-67
2022/11/27 16:00:20;;;;;;;;;;;;;;;11.97;48.18;97312.81;4222337;27;5800;-68
2022/11/27 16:02:27;;;;;;;;;;;;;;;11.96;48.41;97309.34;4223609;28;6409;-73
2022/11/27 16:04:31;;;;;;;;;;;;;;;11.95;48.18;97302.41;4222324;27;5593;-68
2022/11/27 16:06:36;;;;;;;;;;;;;;;11.94;48.00;97292.81;4213718;27;5711;-73
2022/11/27 16:08:40;;;;;;;;;;;;;;;11.93;48.08;97294.66;4226142;28;5756;-76
2022/11/27 16:10:43;;;;;;;;;;;;;;;11.93;47.95;97288.53;4222747;27;5669;-73
2022/11/27 16:12:46;;;;;;;;;;;;;;;11.93;48.01;97294.66;4224481;27;5595;-70
2022/11/27 16:14:48;;;;;;;;;;;;;;;11.91;48.31;97285.25;4210079;28;5722;-72
2022/11/27 16:16:51;;;;;;;;;;;;;;;11.89;48.22;97280.16;4224387;28;5601;-73
2022/11/27 16:18:58;;;;;;;;;;;;;;;11.90;48.35;97275.66;4225618;27;5749;-67
2022/11/27 16:21:07;;;;;;;;;;;;;;;11.89;48.34;97282.78;4224549;28;5598;-75
2022/11/27 16:23:11;;;;;;;;;;;;;;;11.89;48.48;97281.94;4225157;27;5832;-72
2022/11/27 16:25:14;;;;;;;;;;;;;;;11.89;48.30;97282.78;4226817;27;6055;-71
2022/11/27 16:27:17;;;;;;;;;;;;;;;11.90;48.20;97279.13;4226104;27;7126;-71
2022/11/27 16:29:19;;;;;;;;;;;;;;;11.91;48.48;97274.66;4205645;28;5826;-72
2022/11/27 16:31:24;;;;;;;;;;;;;;;11.92;48.48;97276.28;4227081;27;5594;-76
2022/11/27 16:33:28;;;;;;;;;;;;;;;11.90;48.13;97275.66;4226509;28;5799;-69
2022/11/27 16:35:30;;;;;;;;;;;;;;;11.89;48.21;97287.25;4225350;27;5594;-70
2022/11/27 16:37:35;;;;;;;;;;;;;;;11.88;48.40;97275.00;4226920;28;5830;-68
2022/11/27 16:39:38;;;;;;;;;;;;;;;11.88;48.36;97267.06;4223708;27;5728;-71
2022/11/27 16:41:41;;;;;;;;;;;;;;;11.86;48.13;97256.66;4222876;27;5732;-70
2022/11/27 16:43:46;;;;;;;;;;;;;;;11.87;48.34;97262.78;4225774;27;5601;-69
2022/11/27 16:45:48;;;;;;;;;;;;;;;11.87;48.55;97257.47;4227937;28;5815;-73
2022/11/27 16:47:52;;;;;;;;;;;;;;;11.87;48.58;97257.47;4225365;28;5657;-73
2022/11/27 16:49:55;;;;;;;;;;;;;;;11.85;48.33;97252.38;4223552;27;5788;-71
2022/11/27 16:51:57;;;;;;;;;;;;;;;11.86;48.28;97246.06;4222612;27;5727;-72
2022/11/27 16:54:07;;;;;;;;;;;;;;;11.86;48.53;97237.31;4224225;27;6426;-71
2022/11/27 16:56:12;;;;;;;;;;;;;;;11.86;48.23;97238.13;4223616;27;5785;-67
2022/11/27 16:58:15;;;;;;;;;;;;;;;11.86;48.59;97235.47;4222488;27;5773;-68
2022/11/27 17:00:19;;;;;;;;;;;;;;;11.87;48.53;97230.97;4225567;27;5680;-68
2022/11/27 17:02:22;;;;;;;;;;;;;;;11.87;48.36;97233.63;4224174;27;5768;-68
2022/11/27 17:04:25;;;;;;;;;;;;;;;11.85;48.42;97231.19;4224661;28;5602;-65
2022/11/27 17:06:30;;;;;;;;;;;;;;;11.86;48.28;97218.75;4205115;28;6360;-65
2022/11/27 17:08:32;;;;;;;;;;;;;;;11.86;48.29;97210.81;4226147;27;5842;-68
2022/11/27 17:10:37;;;;;;;;;;;;;;;11.86;48.16;97208.97;4224085;27;5648;-67
2022/11/27 17:12:39;;;;;;;;;;;;;;;11.87;48.25;97202.66;4223674;27;5792;-69
2022/11/27 17:14:43;;;;;;;;;;;;;;;11.87;48.37;97204.50;4226341;28;5705;-69
2022/11/27 17:16:46;;;;;;;;;;;;;;;11.87;48.43;97197.38;4226312;27;5621;-68
2022/11/27 17:18:49;;;;;;;;;;;;;;;11.88;48.18;97198.19;4225189;28;5720;-68
2022/11/27 17:20:52;;;;;;;;;;;;;;;11.89;48.17;97189.22;4225856;28;5840;-67
2022/11/27 17:22:55;;;;;;;;;;;;;;;11.90;48.40;97185.59;4225372;28;5598;-67
2022/11/27 17:24:59;;;;;;;;;;;;;;;11.89;48.44;97181.28;4220654;27;5805;-67
2022/11/27 17:27:03;;;;;;;;;;;;;;;11.87;48.60;97183.31;4223612;28;5598;-68
2022/11/27 17:29:06;;;;;;;;;;;;;;;11.88;48.63;97179.63;4224145;27;5613;-67
2022/11/27 17:31:09;;;;;;;;;;;;;;;11.87;48.33;97178.00;4228543;27;5677;-66
2022/11/27 17:33:12;;;;;;;;;;;;;;;11.88;48.52;97177.00;4228254;27;5803;-67
2022/11/27 17:35:15;;;;;;;;;;;;;;;11.89;48.50;97168.88;4230626;27;6436;-67
2022/11/27 17:37:19;;;;;;;;;;;;;;;11.88;48.76;97172.50;4228833;27;5602;-68
2022/11/27 17:39:21;;;;;;;;;;;;;;;11.88;48.48;97161.09;4230788;27;5506;-69
2022/11/27 17:41:25;;;;;;;;;;;;;;;11.86;48.32;97166.59;4226981;28;5699;-68
2022/11/27 17:43:29;;;;;;;;;;;;;;;11.85;48.38;97172.09;4230164;28;5598;-68
2022/11/27 17:45:32;;;;;;;;;;;;;;;11.83;48.44;97166.97;4232997;27;5586;-69
2022/11/27 17:47:35;;;;;;;;;;;;;;;11.83;48.49;97155.56;4224908;27;5884;-68
2022/11/27 17:49:39;;;;;;;;;;;;;;;11.85;48.38;97158.84;4224496;27;5354;-69
2022/11/27 17:51:42;;;;;;;;;;;;;;;11.85;48.47;97153.53;4227970;27;7671;-69
2022/11/27 17:53:45;;;;;;;;;;;;;;;11.84;48.67;97155.38;4229239;28;5806;-67
2022/11/27 17:55:48;;;;;;;;;;;;;;;11.84;48.69;97147.44;4226118;28;6172;-68
2022/11/27 17:57:52;;;;;;;;;;;;;;;11.83;48.44;97147.63;4225385;27;5703;-67
2022/11/27 17:59:56;;;;;;;;;;;;;;;11.82;48.42;97141.50;4227151;27;5587;-69
2022/11/27 18:01:59;;;;;;;;;;;;;;;11.81;48.51;97139.06;4222253;27;6540;-66
2022/11/27 18:04:04;;;;;;;;;;;;;;;11.81;48.63;97129.28;4222854;27;5692;-69
2022/11/27 18:06:07;;;;;;;;;;;;;;;11.81;48.80;97131.94;4224496;27;5716;-68
2022/11/27 18:08:10;;;;;;;;;;;;;;;11.79;48.60;97126.00;4225623;28;5850;-68
2022/11/27 18:10:13;;;;;;;;;;;;;;;11.80;48.82;97127.63;4224874;27;5594;-67
2022/11/27 18:12:16;;;;;;;;;;;;;;;11.80;48.50;97140.06;4226344;27;5796;-68
2022/11/27 18:14:18;;;;;;;;;;;;;;;11.79;48.60;97138.41;4209934;28;5900;-67
2022/11/27 18:16:27;;;;;;;;;;;;;;;11.78;48.72;97131.44;4223716;27;5717;-69
2022/11/27 18:18:31;;;;;;;;;;;;;;;11.77;48.78;97133.25;4230163;27;5602;-74
2022/11/27 18:20:34;;;;;;;;;;;;;;;11.78;49.04;97131.44;4229432;27;5689;-70
2022/11/27 18:22:36;;;;;;;;;;;;;;;11.78;49.15;97134.09;4228734;27;5677;-73
2022/11/27 18:24:42;;;;;;;;;;;;;;;11.77;49.05;97129.81;4229511;27;5574;-71
2022/11/27 18:26:45;;;;;;;;;;;;;;;11.76;48.96;97128.16;4227158;28;5837;-71
2022/11/27 18:29:09;;;;;;;;;;;;;;;11.74;49.00;97124.91;4229119;27;5586;-67
2022/11/27 18:31:14;;;;;;;;;;;;;;;11.74;49.13;97130.19;4228526;27;5614;-67
2022/11/27 18:33:18;;;;;;;;;;;;;;;11.74;49.19;97140.78;4227400;27;5610;-70
2022/11/27 18:35:22;;;;;;;;;;;;;;;11.72;49.08;97130.38;4226403;27;5759;-73
2022/11/27 18:37:25;;;;;;;;;;;;;;;11.73;49.35;97139.16;4225876;27;5640;-69
2022/11/27 18:39:30;;;;;;;;;;;;;;;11.74;49.07;97138.97;4227469;27;5705;-72
2022/11/27 18:41:33;;;;;;;;;;;;;;;11.75;49.39;97147.72;4225206;27;5779;-70
2022/11/27 18:43:36;;;;;;;;;;;;;;;11.76;49.02;97141.41;4229339;27;5196;-73
2022/11/27 18:45:39;;;;;;;;;;;;;;;11.74;49.17;97125.72;4228311;28;5597;-72
2022/11/27 18:47:42;;;;;;;;;;;;;;;11.76;49.07;97128.16;4227893;27;5614;-74
2022/11/27 18:49:47;;;;;;;;;;;;;;;11.75;48.81;97129.19;4222779;27;5800;-73
2022/11/27 18:51:51;;;;;;;;;;;;;;;11.70;49.10;97110.41;4228173;27;5761;-72
2022/11/27 18:53:55;;;;;;;;;;;;;;;11.70;49.44;97102.47;4227771;27;5787;-71
2022/11/27 18:56:02;;;;;;;;;;;;;;;11.70;49.32;97102.47;4228305;27;5732;-68
2022/11/27 18:58:11;;;;;;;;;;;;;;;11.71;49.25;97096.16;4226727;27;5601;-68
2022/11/27 19:00:16;;;;;;;;;;;;;;;11.71;49.28;97085.56;4229070;28;5840;-67
2022/11/27 19:02:18;;;;;;;;;;;;;;;11.72;49.54;97089.84;4207077;28;5638;-64
2022/11/27 19:04:22;;;;;;;;;;;;;;;11.71;49.09;97083.72;4225880;27;5848;-66
2022/11/27 19:06:27;;;;;;;;;;;;;;;11.73;49.25;97075.59;4226116;27;5803;-69
2022/11/27 19:08:30;;;;;;;;;;;;;;;11.74;49.19;97082.53;4225493;27;5701;-70
2022/11/27 19:10:35;;;;;;;;;;;;;;;11.73;49.49;97084.34;4227964;27;5717;-67
2022/11/27 19:12:38;;;;;;;;;;;;;;;11.73;49.17;97089.66;4208905;28;5703;-65
2022/11/27 19:14:41;;;;;;;;;;;;;;;11.73;49.40;97083.53;4227084;27;5756;-65
2022/11/27 19:16:45;;;;;;;;;;;;;;;11.72;49.43;97084.53;4226984;27;5779;-66
2022/11/27 19:18:48;;;;;;;;;;;;;;;11.72;49.57;97080.06;4223995;27;5785;-66
2022/11/27 19:20:53;;;;;;;;;;;;;;;11.73;49.48;97091.47;4226836;27;5777;-65
2022/11/27 19:22:58;;;;;;;;;;;;;;;11.73;49.68;97080.88;4228467;28;5642;-66
2022/11/27 19:25:00;;;;;;;;;;;;;;;11.72;49.28;97077.41;4227135;28;5146;-68
2022/11/27 19:27:03;;;;;;;;;;;;;;;11.72;49.48;97074.78;4226932;27;6409;-67
2022/11/27 19:29:08;;;;;;;;;;;;;;;11.70;49.65;97071.50;4224348;27;5780;-67
2022/11/27 19:31:13;;;;;;;;;;;;;;;11.70;49.31;97068.84;4224660;27;5804;-68
2022/11/27 19:33:15;;;;;;;;;;;;;;;11.71;49.29;97067.03;4226231;27;5784;-65
2022/11/27 19:35:23;;;;;;;;;;;;;;;11.71;49.43;97074.97;4224828;27;5677;-63
2022/11/27 19:37:25;;;;;;;;;;;;;;;11.71;49.72;97064.38;4225085;27;6331;-67
2022/11/27 19:39:37;;;;;;;;;;;;;;;11.69;49.38;97059.28;4225430;27;5825;-67
2022/11/27 19:41:41;;;;;;;;;;;;;;;11.71;49.25;97059.06;4208479;28;5724;-67
2022/11/27 19:43:46;;;;;;;;;;;;;;;11.71;49.37;97059.06;4229052;27;5705;-66
2022/11/27 19:45:48;;;;;;;;;;;;;;;11.72;49.28;97063.38;4227388;27;5792;-66
2022/11/27 19:47:52;;;;;;;;;;;;;;;11.70;49.43;97054.78;4226571;27;5589;-65
2022/11/27 19:49:55;;;;;;;;;;;;;;;11.72;49.78;97060.72;4224117;27;5796;-68
2022/11/27 19:51:58;;;;;;;;;;;;;;;11.72;49.61;97052.75;4225526;27;5606;-63
2022/11/27 19:54:02;;;;;;;;;;;;;;;11.73;49.53;97059.69;4225471;28;5877;-66
2022/11/27 19:56:13;;;;;;;;;;;;;;;11.73;49.62;97049.09;4227069;28;5820;-67
2022/11/27 19:58:16;;;;;;;;;;;;;;;11.74;49.76;97048.09;4231399;27;5727;-67
2022/11/27 20:00:20;;;;;;;;;;;;;;;11.72;49.38;97047.47;4222472;27;5767;-68
2022/11/27 20:02:23;;;;;;;;;;;;;;;11.72;49.73;97039.53;4225245;27;5633;-69
2022/11/27 20:04:26;;;;;;;;;;;;;;;11.73;49.73;97031.38;4230905;27;5083;-67
2022/11/27 20:06:29;;;;;;;;;;;;;;;11.72;49.69;97027.09;4227099;28;5598;-67
2022/11/27 20:08:33;;;;;;;;;;;;;;;11.73;49.68;97026.09;4224865;27;5759;-68
2022/11/27 20:10:35;;;;;;;;;;;;;;;11.75;49.71;97029.34;4232585;27;5598;-67
2022/11/27 20:12:40;;;;;;;;;;;;;;;11.73;49.57;97031.38;4237260;27;5590;-68
2022/11/27 20:14:42;;;;;;;;;;;;;;;11.73;49.75;97025.25;4239493;27;5719;-68
2022/11/27 20:16:45;;;;;;;;;;;;;;;11.72;49.65;97020.97;4225581;27;5618;-68
2022/11/27 20:18:49;;;;;;;;;;;;;;;11.72;49.66;97029.75;4225450;27;5609;-68
2022/11/27 20:20:52;;;;;;;;;;;;;;;11.71;49.49;97019.34;4223986;27;5800;-66
2022/11/27 20:22:54;;;;;;;;;;;;;;;11.71;49.73;97017.53;4223864;27;5916;-67
2022/11/27 20:24:57;;;;;;;;;;;;;;;11.71;49.67;97004.28;4223904;27;5807;-67
2022/11/27 20:27:23;;;;;;;;;;;;;;;11.71;49.62;96998.16;4226585;27;5880;-68
2022/11/27 20:29:27;;;;;;;;;;;;;;;11.71;49.35;96998.16;4223459;27;5700;-66